Time;durP1;ratioP1;P1;durP2;ratioP2;P2;SDS_P1;SDS_P2;PMS_P1;PMS_P2;Temp;Humidity;BMP_temperature;BMP_pressure;BME280_temperature;BME280_humidity;BME280_pressure;Samples;Min_cycle;Max_cycle;Signal;HPM_P1;HPM_P2
2021/08/22 00:01:00;;;;;;;14.13;12.25;;;;;;;26.60;53.50;101710.98;1734529;81;21515;-49
2021/08/22 00:03:27;;;;;;;13.90;12.40;;;;;;;26.59;53.63;101715.93;1735405;82;21054;-49
2021/08/22 00:05:53;;;;;;;14.65;12.15;;;;;;;26.57;53.67;101709.86;1739250;82;21046;-50
2021/08/22 00:08:21;;;;;;;15.43;12.78;;;;;;;26.55;53.69;101710.45;1732173;82;21539;-48
2021/08/22 00:10:47;;;;;;;15.55;12.98;;;;;;;26.54;53.93;101712.26;1737568;82;21046;-48
2021/08/22 00:13:13;;;;;;;15.28;13.15;;;;;;;26.51;54.15;101708.97;1738680;81;21002;-50
2021/08/22 00:15:40;;;;;;;14.73;12.75;;;;;;;26.47;54.38;101710.16;1736314;81;20975;-48
2021/08/22 00:18:07;;;;;;;16.15;13.18;;;;;;;26.43;55.20;101710.02;1730897;82;21052;-49
2021/08/22 00:20:34;;;;;;;19.40;13.18;;;;;;;26.43;55.20;101710.02;1738495;82;21015;-48
2021/08/22 00:23:01;;;;;;;15.45;12.90;;;;;;;26.43;55.12;101711.34;1739546;82;21487;-47
2021/08/22 00:25:27;;;;;;;15.60;13.62;;;;;;;26.40;55.07;101712.89;1737837;82;21006;-53
2021/08/22 00:27:53;;;;;;;14.50;13.00;;;;;;;26.39;54.98;101710.73;1734325;82;21546;-49
2021/08/22 00:30:22;;;;;;;15.60;12.63;;;;;;;26.39;54.84;101709.87;1735035;82;21023;-48
2021/08/22 00:32:49;;;;;;;14.40;12.88;;;;;;;26.38;54.62;101708.14;1737207;82;21030;-49
2021/08/22 00:35:16;;;;;;;13.93;12.45;;;;;;;26.39;54.51;101711.20;1738420;82;21145;-48
2021/08/22 00:37:42;;;;;;;15.18;13.55;;;;;;;26.39;54.44;101712.06;1733771;82;20995;-48
2021/08/22 00:40:09;;;;;;;15.30;13.53;;;;;;;26.38;54.49;101705.48;1735481;82;21050;-48
2021/08/22 00:42:38;;;;;;;16.20;13.72;;;;;;;26.37;54.54;101706.46;1737630;82;21082;-49
2021/08/22 00:45:09;;;;;;;17.48;13.20;;;;;;;26.36;54.63;101711.41;1736599;82;20999;-48
2021/08/22 00:47:39;;;;;;;15.25;13.60;;;;;;;26.35;54.46;101711.05;1734207;82;21487;-49
2021/08/22 00:50:06;;;;;;;16.62;13.83;;;;;;;26.35;54.38;101711.05;1686624;84;21075;-48
2021/08/22 00:52:33;;;;;;;16.82;15.03;;;;;;;26.33;54.14;101711.65;1735972;82;20981;-49
2021/08/22 00:55:05;;;;;;;18.60;16.27;;;;;;;26.32;54.00;101711.27;1736807;82;21095;-49
2021/08/22 00:57:32;;;;;;;;;;;;;;;26.30;53.85;101707.85;1738633;82;21474;-52
2021/08/22 01:00:06;;;;;;;24.63;17.17;;;;;;;26.29;53.67;101718.17;1734954;82;20131;-49
2021/08/22 01:02:34;;;;;;;20.32;17.70;;;;;;;26.23;53.82;101709.28;1608559;89;21083;-50
2021/08/22 01:05:16;;;;;;;19.20;17.17;;;;;;;26.24;53.79;101717.16;1606846;88;21052;-48
2021/08/22 01:08:12;;;;;;;22.02;16.90;;;;;;;26.22;53.56;101714.22;1605847;88;21114;-49
2021/08/22 01:10:39;;;;;;;20.82;17.37;;;;;;;26.18;53.82;101711.41;1501278;95;21105;-48
2021/08/22 01:13:09;;;;;;;20.77;18.20;;;;;;;26.19;53.96;101723.80;1501896;93;21107;-50
2021/08/22 01:15:41;;;;;;;21.23;17.03;;;;;;;26.18;54.00;101720.74;1487333;95;21538;-50
2021/08/22 01:18:12;;;;;;;20.72;17.12;;;;;;;26.15;53.92;101728.48;1496562;94;21102;-49
2021/08/22 01:20:57;;;;;;;21.50;17.00;;;;;;;26.15;53.92;101728.48;1497178;94;21133;-52
2021/08/22 01:23:23;;;;;;;22.32;17.55;;;;;;;26.12;53.75;101730.52;1522919;93;21125;-50
2021/08/22 01:25:50;;;;;;;24.27;18.57;;;;;;;26.07;53.76;101723.31;1521586;93;21151;-47
2021/08/22 01:28:16;;;;;;;21.93;19.07;;;;;;;26.04;53.57;101731.52;1505941;94;21030;-50
2021/08/22 01:30:48;;;;;;;25.65;18.87;;;;;;;25.98;53.69;101725.28;1487095;94;21594;-46
2021/08/22 01:33:17;;;;;;;27.25;20.10;;;;;;;25.97;53.76;101729.76;1503380;93;21173;-51
2021/08/22 01:35:44;;;;;;;24.30;19.70;;;;;;;25.94;53.92;101725.13;1499186;95;21645;-48
2021/08/22 01:38:11;;;;;;;21.90;18.45;;;;;;;25.87;54.31;101725.17;1505738;95;21071;-47
2021/08/22 01:40:37;;;;;;;23.02;19.23;;;;;;;25.86;54.19;101726.15;1490793;94;21101;-48
2021/08/22 01:43:04;;;;;;;23.65;18.32;;;;;;;25.86;54.19;101726.15;1524699;93;21090;-46
2021/08/22 01:45:31;;;;;;;24.07;18.62;;;;;;;25.87;54.22;101734.51;1537453;89;21084;-51
2021/08/22 01:48:00;;;;;;;24.12;19.12;;;;;;;25.80;54.43;101736.77;1609795;89;21103;-48
2021/08/22 01:50:26;;;;;;;22.05;17.35;;;;;;;25.75;54.25;101733.09;1608352;89;21158;-49
2021/08/22 01:52:57;;;;;;;21.50;18.65;;;;;;;25.75;54.25;101733.09;1575053;90;21051;-48
2021/08/22 01:55:23;;;;;;;19.82;17.20;;;;;;;25.68;54.34;101731.80;1601869;88;21067;-51
2021/08/22 01:57:50;;;;;;;20.55;17.35;;;;;;;25.68;54.34;101731.80;1576950;90;21543;-47
2021/08/22 02:00:18;;;;;;;18.25;16.35;;;;;;;25.64;54.11;101731.63;1720339;82;21046;-47
2021/08/22 02:02:59;;;;;;;18.57;16.52;;;;;;;25.64;54.11;101731.63;1736798;82;21994;-46
2021/08/22 02:05:26;;;;;;;25.82;16.32;;;;;;;25.63;54.17;101729.94;1606399;87;21598;-46
2021/08/22 02:07:53;;;;;;;22.67;17.10;;;;;;;25.65;54.27;101733.83;1607998;89;21137;-47
2021/08/22 02:10:27;;;;;;;21.77;16.67;;;;;;;25.65;54.32;101730.69;1606808;88;21035;-50
2021/08/22 02:12:58;;;;;;;18.25;16.20;;;;;;;25.67;54.24;101726.11;1607041;88;21146;-46
2021/08/22 02:15:31;;;;;;;22.22;16.30;;;;;;;25.68;53.99;101730.93;1609010;87;21046;-50
2021/08/22 02:17:59;;;;;;;;;;;;;;;25.66;54.05;101730.19;1596095;89;21102;-47
2021/08/22 02:20:26;;;;;;;21.48;15.48;;;;;;;25.62;53.73;101726.89;1609265;88;20138;-47
2021/08/22 02:22:53;;;;;;;17.50;15.58;;;;;;;25.62;53.73;101726.89;1610892;88;21031;-47
2021/08/22 02:25:20;;;;;;;17.02;14.83;;;;;;;25.64;53.65;101726.30;1607797;88;22755;-47
2021/08/22 02:27:47;;;;;;;17.92;14.90;;;;;;;25.65;53.81;101728.02;1614714;88;21042;-53
2021/08/22 02:30:14;;;;;;;18.55;16.30;;;;;;;25.65;53.91;101724.02;1611082;88;21539;-47
2021/08/22 02:32:41;;;;;;;18.40;15.72;;;;;;;25.67;53.99;101722.11;1608012;88;21069;-47
2021/08/22 02:35:09;;;;;;;18.17;15.93;;;;;;;25.68;54.01;101725.13;1618705;88;21145;-51
2021/08/22 02:37:36;;;;;;;18.67;16.37;;;;;;;25.67;54.04;101727.44;1611366;88;21507;-47
2021/08/22 02:40:06;;;;;;;17.73;15.83;;;;;;;25.64;53.68;101732.97;1611226;88;21049;-46
2021/08/22 02:42:33;;;;;;;19.98;16.65;;;;;;;25.64;53.68;101732.97;1616793;88;21708;-46
2021/08/22 02:44:59;;;;;;;16.67;14.73;;;;;;;25.62;54.03;101728.22;1609381;88;21064;-51
2021/08/22 02:47:27;;;;;;;17.70;15.83;;;;;;;25.58;53.99;101721.87;1616509;87;21031;-47
2021/08/22 02:49:54;;;;;;;16.57;14.83;;;;;;;25.57;53.97;101729.03;1625022;88;21125;-49
2021/08/22 02:52:21;;;;;;;18.80;15.93;;;;;;;25.53;54.10;101735.50;1619424;88;21205;-47
2021/08/22 02:54:48;;;;;;;19.12;14.87;;;;;;;25.53;54.10;101735.50;1620993;85;21107;-47
2021/08/22 02:57:18;;;;;;;17.00;15.20;;;;;;;25.51;54.16;101739.26;1679970;85;21080;-49
2021/08/22 02:59:45;;;;;;;20.17;15.95;;;;;;;25.46;54.10;101736.91;1677594;85;21024;-46
2021/08/22 03:02:13;;;;;;;18.55;15.93;;;;;;;25.46;54.10;101736.91;1677461;85;21068;-47
2021/08/22 03:04:40;;;;;;;17.48;15.60;;;;;;;25.48;54.04;101730.98;1677473;85;21028;-47
2021/08/22 03:07:08;;;;;;;17.92;15.93;;;;;;;25.51;54.00;101736.59;1677146;85;21548;-47
2021/08/22 03:09:35;;;;;;;21.57;19.07;;;;;;;25.53;53.92;101738.17;1677440;85;21044;-47
2021/08/22 03:12:05;;;;;;;20.45;16.00;;;;;;;25.53;53.95;101735.50;1677297;85;21603;-50
2021/08/22 03:14:32;;;;;;;18.85;15.28;;;;;;;25.52;53.98;101736.48;1677719;85;21055;-49
2021/08/22 03:16:59;;;;;;;30.85;15.55;;;;;;;25.49;54.11;101734.01;1677190;85;21068;-49
2021/08/22 03:19:27;;;;;;;22.80;15.35;;;;;;;25.50;54.39;101738.87;1677593;85;21119;-52
2021/08/22 03:21:56;;;;;;;20.55;16.42;;;;;;;25.47;54.86;101743.92;1677467;85;21784;-50
2021/08/22 03:24:23;;;;;;;19.23;16.62;;;;;;;25.46;54.93;101740.89;1677233;85;21048;-47
2021/08/22 03:26:49;;;;;;;20.02;15.75;;;;;;;25.46;54.93;101740.89;1680017;84;21076;-47
2021/08/22 03:29:16;;;;;;;18.77;16.20;;;;;;;25.44;55.36;101749.48;1677552;85;21532;-51
2021/08/22 03:31:44;;;;;;;18.00;15.95;;;;;;;25.44;55.36;101749.48;1677239;85;21048;-50
2021/08/22 03:34:10;;;;;;;17.57;15.75;;;;;;;25.45;55.19;101755.16;1677372;85;21547;-49
2021/08/22 03:36:37;;;;;;;16.95;14.93;;;;;;;25.45;55.12;101749.00;1678612;85;21034;-48
2021/08/22 03:39:05;;;;;;;20.55;16.52;;;;;;;25.41;55.14;101749.67;1677344;85;21044;-49
2021/08/22 03:41:33;;;;;;;18.50;14.78;;;;;;;25.41;55.00;101755.00;1677398;85;21045;-48
2021/08/22 03:44:00;;;;;;;18.95;14.70;;;;;;;25.39;54.65;101759.55;1677423;85;21067;-51
2021/08/22 03:46:27;;;;;;;18.32;14.73;;;;;;;25.36;54.49;101755.77;1677205;85;21041;-49
2021/08/22 03:48:54;;;;;;;20.52;16.00;;;;;;;25.35;54.48;101752.72;1677474;85;21529;-52
2021/08/22 03:51:23;;;;;;;19.62;15.20;;;;;;;25.35;53.65;101762.05;1677551;85;21017;-50
2021/08/22 03:53:50;;;;;;;22.27;15.43;;;;;;;25.35;53.65;101762.05;1677591;85;21017;-50
2021/08/22 03:56:17;;;;;;;39.30;17.60;;;;;;;25.32;53.23;101760.94;1677644;85;21060;-49
2021/08/22 03:58:43;;;;;;;149.97;22.32;;;;;;;25.32;53.23;101760.94;1677570;85;21059;-51
2021/08/22 04:01:10;;;;;;;24.05;15.95;;;;;;;25.30;53.33;101765.52;1677526;85;21079;-48
2021/08/22 04:03:40;;;;;;;21.87;16.05;;;;;;;25.28;53.39;101764.77;1669532;85;21552;-49
2021/08/22 04:06:20;;;;;;;19.20;15.10;;;;;;;25.26;53.47;101766.67;1598978;89;21076;-48
2021/08/22 04:08:48;;;;;;;17.62;15.55;;;;;;;25.24;53.32;101765.92;1589835;90;21059;-48
2021/08/22 04:11:14;;;;;;;21.40;15.53;;;;;;;25.23;53.16;101761.54;1582935;89;21113;-51
2021/08/22 04:13:41;;;;;;;18.32;14.53;;;;;;;25.22;53.37;101759.84;1582924;91;21100;-48
2021/08/22 04:16:08;;;;;;;24.37;15.00;;;;;;;25.22;53.44;101763.84;1582845;91;21129;-47
2021/08/22 04:18:35;;;;;;;17.65;15.25;;;;;;;25.20;53.47;101761.76;1582790;91;21079;-51
2021/08/22 04:21:01;;;;;;;17.15;14.50;;;;;;;25.20;53.47;101761.76;1583051;91;21050;-47
2021/08/22 04:23:27;;;;;;;21.57;15.85;;;;;;;25.18;53.36;101763.67;1582794;91;21078;-47
2021/08/22 04:25:54;;;;;;;20.08;14.30;;;;;;;25.20;53.57;101770.22;1582851;91;21074;-48
2021/08/22 04:28:21;;;;;;;16.23;14.33;;;;;;;25.21;53.58;101771.44;1583057;89;21095;-47
2021/08/22 04:30:48;;;;;;;17.27;14.38;;;;;;;25.21;53.63;101776.77;1602010;89;21115;-47
2021/08/22 04:33:14;;;;;;;17.42;14.38;;;;;;;25.21;53.63;101771.44;1582932;90;21083;-51
2021/08/22 04:35:41;;;;;;;18.55;13.22;;;;;;;25.22;53.71;101773.16;1583073;91;21087;-50
2021/08/22 04:38:08;;;;;;;16.25;14.43;;;;;;;25.21;53.60;101778.57;1582937;90;21640;-47
2021/08/22 04:40:38;;;;;;;17.85;14.47;;;;;;;25.20;53.65;101775.08;1583069;91;21155;-50
2021/08/22 04:43:05;;;;;;;17.48;14.68;;;;;;;25.18;53.83;101779.66;1656807;85;21033;-48
2021/08/22 04:45:32;;;;;;;17.55;14.15;;;;;;;25.18;53.83;101779.66;1677943;85;21076;-50
2021/08/22 04:47:59;;;;;;;17.80;14.45;;;;;;;25.18;53.49;101779.66;1677246;85;21018;-48
2021/08/22 04:50:25;;;;;;;16.35;14.60;;;;;;;25.18;53.52;101784.12;1677559;85;21070;-53
2021/08/22 04:52:52;;;;;;;17.62;13.88;;;;;;;25.17;53.47;101791.25;1677408;85;21045;-48
2021/08/22 04:55:18;;;;;;;16.30;14.58;;;;;;;25.16;53.40;101786.03;1677492;85;21012;-49
2021/08/22 04:57:45;;;;;;;15.95;13.58;;;;;;;25.16;53.67;101789.55;1677493;85;21020;-51
2021/08/22 05:00:13;;;;;;;16.05;13.35;;;;;;;25.20;53.64;101788.40;1677429;85;21051;-47
2021/08/22 05:02:41;;;;;;;19.73;13.78;;;;;;;25.22;53.53;101791.81;1677211;85;21104;-48
2021/08/22 05:05:09;;;;;;;20.40;13.30;;;;;;;25.25;53.46;101790.73;1677234;85;21061;-52
2021/08/22 05:07:36;;;;;;;18.75;14.87;;;;;;;25.25;53.45;101788.92;1677611;85;21513;-48
2021/08/22 05:10:05;;;;;;;16.05;13.65;;;;;;;25.29;53.33;101790.43;1677418;85;21064;-47
2021/08/22 05:12:32;;;;;;;25.50;14.65;;;;;;;25.29;53.03;101793.09;1677486;85;21504;-52
2021/08/22 05:14:59;;;;;;;20.65;13.75;;;;;;;25.29;52.87;101792.23;1677346;85;21056;-48
2021/08/22 05:17:25;;;;;;;17.15;13.13;;;;;;;25.29;53.00;101789.57;1677626;85;21060;-50
2021/08/22 05:19:53;;;;;;;18.98;13.32;;;;;;;25.29;52.88;101790.43;1677298;85;21021;-51
2021/08/22 05:22:21;;;;;;;18.85;14.07;;;;;;;25.29;52.88;101790.43;1677496;84;21103;-48
2021/08/22 05:24:47;;;;;;;16.30;13.58;;;;;;;25.32;52.76;101791.58;1677533;85;21056;-53
2021/08/22 05:27:15;;;;;;;18.10;15.38;;;;;;;25.34;52.65;101802.12;1677447;85;21517;-51
2021/08/22 05:29:43;;;;;;;17.42;14.23;;;;;;;25.32;52.70;101800.90;1677220;85;21104;-51
2021/08/22 05:32:10;;;;;;;19.10;16.00;;;;;;;25.32;52.82;101806.23;1677542;85;21024;-48
2021/08/22 05:34:36;;;;;;;19.85;14.05;;;;;;;25.32;52.80;101806.23;1677471;85;21041;-50
2021/08/22 05:37:04;;;;;;;17.05;13.75;;;;;;;25.33;52.80;101801.26;1677509;85;21107;-52
2021/08/22 05:39:32;;;;;;;15.80;13.30;;;;;;;25.33;52.88;101804.39;1677254;85;21091;-51
2021/08/22 05:41:59;;;;;;;15.90;13.70;;;;;;;25.36;53.15;101803.73;1673666;84;21068;-47
2021/08/22 05:44:26;;;;;;;14.75;13.15;;;;;;;25.41;53.11;101808.29;1664212;85;21012;-49
2021/08/22 05:46:53;;;;;;;16.07;13.53;;;;;;;25.47;52.98;101802.55;1669114;85;21033;-50
2021/08/22 05:49:19;;;;;;;14.68;12.65;;;;;;;25.53;52.74;101800.80;1663593;85;21016;-50
2021/08/22 05:51:48;;;;;;;15.58;13.43;;;;;;;25.60;52.67;101803.44;1653641;85;21036;-49
2021/08/22 05:54:15;;;;;;;18.40;14.63;;;;;;;25.65;52.61;101800.00;1664415;85;21044;-45
2021/08/22 05:56:41;;;;;;;16.25;12.40;;;;;;;25.70;52.49;101807.19;1665123;85;21008;-46
2021/08/22 05:59:08;;;;;;;18.07;13.85;;;;;;;25.75;52.28;101798.41;1659640;85;21092;-46
2021/08/22 06:01:36;;;;;;;15.60;13.10;;;;;;;25.78;52.50;101799.52;1663218;85;21033;-50
2021/08/22 06:04:03;;;;;;;25.55;18.85;;;;;;;25.86;52.60;101803.48;1661075;84;21052;-49
2021/08/22 06:06:30;;;;;;;23.10;20.02;;;;;;;25.96;52.27;101804.55;1667348;84;21083;-51
2021/08/22 06:08:57;;;;;;;21.97;17.90;;;;;;;26.06;52.10;101802.95;1670230;84;21072;-53
2021/08/22 06:11:23;;;;;;;27.55;18.73;;;;;;;26.17;51.97;101804.42;1668448;85;21528;-50
2021/08/22 06:13:50;;;;;;;22.65;15.38;;;;;;;26.28;51.80;101803.17;1664734;84;21049;-50
2021/08/22 06:16:18;;;;;;;18.48;13.85;;;;;;;26.39;51.59;101801.94;1665732;85;21056;-50
2021/08/22 06:18:45;;;;;;;17.02;13.80;;;;;;;26.46;51.21;101797.38;1669007;84;21049;-46
2021/08/22 06:21:11;;;;;;;16.55;14.80;;;;;;;26.67;51.02;101805.66;1651075;86;21009;-50
2021/08/22 06:23:38;;;;;;;16.82;13.70;;;;;;;26.67;51.02;101805.66;1660722;85;21079;-48
2021/08/22 06:26:05;;;;;;;17.65;14.05;;;;;;;26.76;50.46;101805.04;1665801;85;21000;-46
2021/08/22 06:28:31;;;;;;;14.73;13.18;;;;;;;26.84;50.02;101803.99;1664295;85;21048;-48
2021/08/22 06:30:59;;;;;;;15.28;13.68;;;;;;;26.86;49.58;101808.74;1663835;85;21519;-45
2021/08/22 06:33:25;;;;;;;19.00;14.28;;;;;;;26.83;49.58;101806.28;1663217;85;21084;-49
2021/08/22 06:36:01;;;;;;;18.77;13.65;;;;;;;26.81;49.81;101808.21;1660386;85;21072;-48
2021/08/22 06:38:28;;;;;;;16.45;12.93;;;;;;;26.87;49.92;101810.47;1575516;89;21058;-48
2021/08/22 06:40:55;;;;;;;13.28;11.90;;;;;;;26.96;49.48;101812.44;1581741;91;21173;-49
2021/08/22 06:43:22;;;;;;;15.58;11.73;;;;;;;27.03;49.21;101808.36;1581817;89;21010;-46
2021/08/22 06:45:48;;;;;;;16.12;12.33;;;;;;;27.09;49.07;101817.73;1581706;91;21089;-50
2021/08/22 06:48:15;;;;;;;13.03;11.68;;;;;;;27.12;48.97;101817.02;1581732;88;21069;-46
2021/08/22 06:50:43;;;;;;;14.38;11.33;;;;;;;27.15;48.83;101821.29;1581501;88;21578;-49
2021/08/22 06:53:10;;;;;;;18.10;12.88;;;;;;;27.15;48.99;101819.48;1581451;90;21537;-46
2021/08/22 06:55:37;;;;;;;16.15;13.08;;;;;;;27.14;49.13;101819.59;1581792;88;21063;-49
2021/08/22 06:58:05;;;;;;;18.30;13.43;;;;;;;27.15;49.21;101820.81;1580819;91;21667;-47
2021/08/22 07:00:32;;;;;;;14.47;12.75;;;;;;;27.16;49.23;101822.50;1581256;88;21130;-48
2021/08/22 07:02:58;;;;;;;23.30;12.00;;;;;;;27.18;49.24;101828.58;1583160;89;21042;-48
2021/08/22 07:05:25;;;;;;;16.55;12.35;;;;;;;27.18;49.06;101829.09;1581419;91;21141;-47
2021/08/22 07:07:54;;;;;;;14.93;11.88;;;;;;;27.14;49.09;101827.61;1581241;88;21132;-47
2021/08/22 07:10:21;;;;;;;16.65;11.95;;;;;;;27.12;49.03;101830.88;1581792;89;21049;-47
2021/08/22 07:12:48;;;;;;;15.18;12.45;;;;;;;27.08;49.18;101837.42;1580689;89;21137;-50
2021/08/22 07:15:15;;;;;;;17.20;11.93;;;;;;;27.04;49.46;101832.77;1584678;89;21021;-51
2021/08/22 07:17:42;;;;;;;12.80;11.50;;;;;;;27.01;49.91;101834.34;1581683;89;21081;-47
2021/08/22 07:20:11;;;;;;;12.82;11.53;;;;;;;27.00;49.88;101839.30;1581150;89;21113;-48
2021/08/22 07:22:37;;;;;;;15.78;11.60;;;;;;;27.01;49.99;101842.35;1581406;88;21105;-48
2021/08/22 07:25:06;;;;;;;14.87;11.48;;;;;;;26.99;49.99;101841.61;1581663;89;21075;-46
2021/08/22 07:27:33;;;;;;;14.28;12.18;;;;;;;27.02;50.12;101838.70;1581059;91;21033;-48
2021/08/22 07:29:59;;;;;;;16.65;12.55;;;;;;;27.07;50.19;101839.23;1584306;89;20998;-46
2021/08/22 07:32:26;;;;;;;18.50;13.10;;;;;;;27.09;50.07;101841.30;1581769;88;21643;-48
2021/08/22 07:34:52;;;;;;;15.05;11.93;;;;;;;27.08;49.86;101840.92;1613123;85;21100;-49
2021/08/22 07:37:19;;;;;;;14.18;11.40;;;;;;;27.09;49.63;101847.98;1670537;84;21549;-49
2021/08/22 07:39:45;;;;;;;12.78;10.78;;;;;;;27.13;49.77;101849.47;1672811;85;21080;-50
2021/08/22 07:42:12;;;;;;;17.32;11.97;;;;;;;27.14;49.91;101848.48;1671029;84;21055;-49
2021/08/22 07:44:41;;;;;;;13.85;12.28;;;;;;;27.17;49.73;101853.62;1674306;85;21032;-47
2021/08/22 07:47:08;;;;;;;14.10;11.22;;;;;;;27.22;49.98;101850.61;1694327;82;21088;-50
2021/08/22 07:49:34;;;;;;;13.20;10.90;;;;;;;27.26;50.12;101852.95;1680826;84;20998;-48
2021/08/22 07:52:01;;;;;;;12.25;10.90;;;;;;;27.30;50.23;101850.89;1663874;85;20977;-47
2021/08/22 07:54:28;;;;;;;13.75;11.78;;;;;;;27.34;50.09;101850.59;1727120;82;21042;-49
2021/08/22 07:56:56;;;;;;;14.10;11.15;;;;;;;27.38;49.65;101842.70;1729739;82;21042;-49
2021/08/22 07:59:23;;;;;;;15.23;11.53;;;;;;;27.42;49.73;101851.82;1725161;82;21541;-48
2021/08/22 08:01:50;;;;;;;11.55;10.45;;;;;;;27.47;49.61;101855.02;1728367;82;21061;-50
2021/08/22 08:04:17;;;;;;;15.05;11.48;;;;;;;27.49;49.29;101848.59;1725376;82;21030;-49
2021/08/22 08:06:44;;;;;;;16.15;10.98;;;;;;;27.55;49.22;101857.97;1725464;82;21522;-50
2021/08/22 08:09:13;;;;;;;13.85;10.60;;;;;;;27.60;49.26;101857.11;1730129;82;21029;-48
2021/08/22 08:11:41;;;;;;;15.45;11.03;;;;;;;27.66;49.29;101855.31;1735341;82;21054;-48
2021/08/22 08:14:08;;;;;;;12.05;10.75;;;;;;;27.70;49.33;101854.14;1726861;81;21036;-51
2021/08/22 08:16:35;;;;;;;15.93;12.10;;;;;;;27.74;49.35;101857.77;1727749;81;21069;-49
2021/08/22 08:19:02;;;;;;;14.75;10.90;;;;;;;27.78;49.14;101849.06;1730857;82;20987;-49
2021/08/22 08:21:29;;;;;;;14.13;10.48;;;;;;;27.83;49.46;101849.54;1730186;82;21463;-50
2021/08/22 08:23:57;;;;;;;12.13;10.82;;;;;;;27.88;49.74;101846.05;1731598;82;21439;-50
2021/08/22 08:26:24;;;;;;;14.23;11.18;;;;;;;27.93;49.41;101851.88;1729268;82;21002;-47
2021/08/22 08:28:51;;;;;;;11.55;10.28;;;;;;;27.97;49.41;101847.55;1723566;82;21050;-50
2021/08/22 08:31:18;;;;;;;13.58;10.28;;;;;;;28.03;48.66;101851.56;1726618;82;20978;-49
2021/08/22 08:33:44;;;;;;;13.80;10.95;;;;;;;28.08;48.54;101850.73;1724052;82;21003;-50
2021/08/22 08:36:12;;;;;;;16.25;10.50;;;;;;;28.12;48.51;101843.69;1681907;84;21125;-50
2021/08/22 08:38:40;;;;;;;13.98;11.18;;;;;;;28.18;48.26;101845.02;1661553;85;21032;-51
2021/08/22 08:41:07;;;;;;;13.05;10.75;;;;;;;28.26;47.92;101849.77;1683863;82;21525;-51
2021/08/22 08:43:34;;;;;;;10.80;9.83;;;;;;;28.29;47.89;101843.70;1662803;85;21059;-47
2021/08/22 08:46:18;;;;;;;10.70;9.70;;;;;;;28.33;47.98;101849.19;1729142;82;21018;-53
2021/08/22 08:48:59;;;;;;;13.55;10.43;;;;;;;28.36;47.67;101839.55;1735333;82;21061;-49
2021/08/22 08:51:55;;;;;;;14.30;9.38;;;;;;;28.38;48.13;101840.28;1667384;85;21049;-51
2021/08/22 08:54:30;;;;;;;12.65;11.38;;;;;;;28.41;47.85;101840.06;1723767;82;21026;-48
2021/08/22 08:56:59;;;;;;;10.40;9.20;;;;;;;28.46;48.34;101839.19;1646047;86;21123;-50
2021/08/22 08:59:25;;;;;;;11.70;9.55;;;;;;;28.51;47.84;101834.33;1602726;88;21049;-48
2021/08/22 09:01:53;;;;;;;12.30;9.13;;;;;;;28.55;47.84;101837.13;1602935;89;21585;-48
2021/08/22 09:04:30;;;;;;;13.30;9.75;;;;;;;28.61;47.68;101835.33;1591774;89;21148;-49
2021/08/22 09:07:39;;;;;;;15.48;9.83;;;;;;;28.66;47.16;101833.63;1599095;89;21066;-48
2021/08/22 09:11:00;;;;;;;10.68;9.20;;;;;;;28.72;47.09;101832.66;1600222;89;21101;-50
2021/08/22 09:14:22;;;;;;;22.40;8.98;;;;;;;28.79;46.72;101823.13;1600177;89;21545;-46
2021/08/22 09:17:21;;;;;;;12.03;9.00;;;;;;;28.88;45.70;101826.41;1603271;88;20986;-47
2021/08/22 09:20:30;;;;;;;12.23;8.25;;;;;;;28.95;45.65;101830.27;1599500;88;21014;-48
2021/08/22 09:23:51;;;;;;;17.23;8.60;;;;;;;29.02;45.24;101825.78;1570318;90;21117;-47
2021/08/22 09:26:53;;;;;;;14.95;8.95;;;;;;;29.07;45.02;101828.44;1598179;89;21041;-46
2021/08/22 09:30:15;;;;;;;14.25;8.65;;;;;;;29.15;45.60;101825.14;1617296;88;21068;-49
2021/08/22 09:33:38;;;;;;;10.13;8.70;;;;;;;29.20;45.94;101825.63;1608564;88;21106;-47
2021/08/22 09:36:36;;;;;;;10.78;8.33;;;;;;;29.26;46.17;101817.08;1616441;88;21037;-51
2021/08/22 09:39:59;;;;;;;8.50;7.70;;;;;;;29.30;46.11;101818.04;1613306;88;21448;-50
2021/08/22 09:43:17;;;;;;;9.50;7.53;;;;;;;29.35;45.76;101817.63;1622335;88;21060;-48
2021/08/22 09:46:27;;;;;;;8.93;7.58;;;;;;;29.39;45.97;101811.03;1617251;87;21060;-51
2021/08/22 09:49:36;;;;;;;9.35;8.00;;;;;;;29.42;45.51;101816.15;1616491;88;21552;-49
2021/08/22 09:52:41;;;;;;;11.25;8.20;;;;;;;29.47;46.01;101820.66;1621768;88;21061;-49
2021/08/22 09:55:51;;;;;;;9.18;7.58;;;;;;;29.51;45.21;101817.55;1724819;82;20990;-50
2021/08/22 09:58:53;;;;;;;9.28;7.67;;;;;;;29.55;45.57;101819.52;1732767;82;21013;-49
2021/08/22 10:01:56;;;;;;;9.38;7.87;;;;;;;29.60;45.55;101814.59;1731859;82;21074;-49
2021/08/22 10:04:37;;;;;;;13.30;7.12;;;;;;;29.63;45.43;101820.57;1719708;82;21074;-48
2021/08/22 10:07:32;;;;;;;12.93;7.80;;;;;;;29.68;44.95;101817.47;1732438;82;21531;-50
2021/08/22 10:10:27;;;;;;;12.03;7.12;;;;;;;29.71;45.08;101819.91;1731224;82;21010;-47
2021/08/22 10:12:54;;;;;;;19.62;8.03;;;;;;;29.74;44.92;101811.61;1636933;85;21071;-52
2021/08/22 10:15:22;;;;;;;9.60;6.90;;;;;;;29.78;44.23;101814.91;1650541;87;21572;-49
2021/08/22 10:17:49;;;;;;;8.85;7.45;;;;;;;29.82;43.67;101811.80;1631574;86;20999;-48
2021/08/22 10:20:17;;;;;;;10.23;7.53;;;;;;;29.86;43.63;101810.59;1628183;85;21119;-50
2021/08/22 10:22:48;;;;;;;11.03;6.97;;;;;;;29.90;43.74;101808.48;1624890;87;21028;-48
2021/08/22 10:25:19;;;;;;;9.30;7.25;;;;;;;29.92;42.94;101807.38;1638058;86;21086;-48
2021/08/22 10:27:57;;;;;;;7.17;6.47;;;;;;;29.95;42.66;101809.78;1638292;86;21135;-48
2021/08/22 10:30:26;;;;;;;6.33;5.72;;;;;;;29.99;42.81;101801.81;1616442;88;21521;-50
2021/08/22 10:33:08;;;;;;;7.62;6.28;;;;;;;30.03;42.68;101807.28;1569653;89;21116;-49
2021/08/22 10:35:36;;;;;;;7.28;6.58;;;;;;;30.05;42.28;101809.34;1559670;91;21037;-50
2021/08/22 10:38:24;;;;;;;14.95;8.75;;;;;;;30.07;42.51;101803.86;1576892;88;21132;-50
2021/08/22 10:40:52;;;;;;;12.13;10.93;;;;;;;30.10;42.24;101804.92;1583015;89;21076;-51
2021/08/22 10:43:31;;;;;;;11.20;10.10;;;;;;;30.12;41.64;101802.47;1600825;88;21002;-51
2021/08/22 10:45:57;;;;;;;9.55;7.20;;;;;;;30.15;41.79;101803.52;1617891;87;21086;-50
2021/08/22 10:48:30;;;;;;;10.85;7.75;;;;;;;30.19;42.02;101800.09;1619478;84;21515;-47
2021/08/22 10:51:04;;;;;;;7.47;6.78;;;;;;;30.24;41.86;101801.87;1698084;84;21000;-50
2021/08/22 10:53:35;;;;;;;7.08;6.37;;;;;;;30.29;42.09;101793.83;1697605;83;21678;-48
2021/08/22 10:56:29;;;;;;;6.80;5.92;;;;;;;30.32;41.61;101797.56;1701469;82;21024;-49
2021/08/22 10:59:08;;;;;;;19.17;6.40;;;;;;;30.35;41.73;101793.77;1695038;83;20975;-47
2021/08/22 11:01:39;;;;;;;9.20;6.10;;;;;;;30.37;42.07;101789.97;1702774;83;21033;-49
2021/08/22 11:04:11;;;;;;;6.80;5.92;;;;;;;30.39;41.36;101790.68;1576742;89;21172;-48
2021/08/22 11:07:01;;;;;;;24.02;7.10;;;;;;;30.41;41.37;101787.36;1597083;89;21074;-48
2021/08/22 11:09:44;;;;;;;10.32;5.85;;;;;;;30.44;41.27;101791.11;1535328;91;21577;-48
2021/08/22 11:12:29;;;;;;;6.95;5.37;;;;;;;30.45;41.76;101786.11;1543382;91;21081;-50
2021/08/22 11:14:59;;;;;;;5.97;5.45;;;;;;;30.48;41.69;101788.50;1492884;94;21139;-49
2021/08/22 11:17:26;;;;;;;8.78;5.10;;;;;;;30.50;41.00;101787.88;1528919;91;21104;-47
2021/08/22 11:19:56;;;;;;;7.12;5.78;;;;;;;30.51;41.04;101786.90;1539697;92;21025;-49
2021/08/22 11:22:27;;;;;;;5.60;5.10;;;;;;;30.52;41.42;101788.58;1500778;93;21096;-49
2021/08/22 11:24:58;;;;;;;5.65;5.10;;;;;;;30.51;40.75;101789.59;1487018;94;21111;-47
2021/08/22 11:27:28;;;;;;;5.55;4.97;;;;;;;30.51;40.97;101788.73;1488288;94;21108;-48
2021/08/22 11:30:01;;;;;;;7.83;5.17;;;;;;;30.50;41.03;101787.05;1488351;94;21053;-47
2021/08/22 11:32:29;;;;;;;6.75;4.92;;;;;;;30.49;41.35;101790.22;1508003;93;21135;-47